Shimpstown, Pennsylvania
Current Conditions -  °F | °C
As of 4:35 PM on Wednesday 26 Nov 2014 (Local Time) from KHGR Reporting Station
Light Snow Light Snow  
Wind Chill: 27°   Ceiling: 300
Heat Index: 33°   Visibility: 0.25mi
Dew Point: 32°   Wind: 7mph
Humidity: 96%   Direction: 310°NW
Pressure: 29.96"   Gusts: NA
Location:  39.8035°N, 77.9346°W
Report Text: KHGR 262135Z 31006KT 1/4SM -SN FG VV003 01/00 A2996 RMK AO2 P0001 T00060000
Loading
Personal Weather Stations






























Interactive Weather Map New forecast layout! Learn more

10-Day Weather Forecast

Advertisements
Track Severe Weather on mobile